This is the latest recevied weather packets stored in our database for station/object WS2Z. If no packets are shown the sender has not sent any weather packets the latest 10 day(s).
| Time | Temp. | Humidity | Pressure | Rain* | Wind** | Luminosity | Snow |
|---|---|---|---|---|---|---|---|
| 1777565895 | 28.89° C | 58% | 1013.2 hPa | 0 mm | - | 832 W/m² | - |
| 1777565591 | 28.89° C | 57% | 1013.3 hPa | 0 mm | - | 825 W/m² | - |
| 1777565288 | 28.89° C | 57% | 1013.4 hPa | 0 mm | - | 814 W/m² | - |
| 1777564983 | 28.89° C | 56% | 1013.5 hPa | 0 mm | - | 777 W/m² | - |
| 1777564679 | 28.33° C | 59% | 1013.5 hPa | 0 mm | - | 738 W/m² | - |
| 1777564374 | 28.33° C | 58% | 1013.6 hPa | 0 mm | - | 671 W/m² | - |
| 1777564071 | 28.89° C | 60% | 1013.5 hPa | 0 mm | - | 205 W/m² | - |
| 1777563767 | 28.89° C | 60% | 1013.6 hPa | 0 mm | - | 487 W/m² | - |
| 1777563464 | 28.89° C | 62% | 1013.6 hPa | 0 mm | - | 221 W/m² | - |
| 1777563162 | 28.33° C | 62% | 1013.7 hPa | 0 mm | - | 104 W/m² | - |
| 1777562859 | 28.33° C | 65% | 1013.9 hPa | 0 mm | - | 132 W/m² | - |
| 1777562556 | 28.33° C | 64% | 1014.1 hPa | 0 mm | - | 160 W/m² | - |
| 1777562254 | 28.33° C | 63% | 1014 hPa | 0 mm | - | 164 W/m² | - |
| 1777561952 | 28.89° C | 61% | 1014.2 hPa | 0 mm | - | 165 W/m² | - |
| 1777561649 | 28.89° C | 62% | 1013.9 hPa | 0 mm | - | 199 W/m² | - |
| 1777561344 | 27.78° C | 68% | 1014 hPa | 0 mm | - | 379 W/m² | - |
| 1777561040 | 27.78° C | 66% | 1014.1 hPa | 0 mm | - | 339 W/m² | - |
| 1777560735 | 27.78° C | 68% | 1014 hPa | 0 mm | - | 295 W/m² | - |
| 1777560432 | 27.78° C | 66% | 1013.9 hPa | 0 mm | - | 152 W/m² | - |
| 1777560130 | 28.33° C | 67% | 1013.9 hPa | 0 mm | - | 81 W/m² | - |
| 1777559827 | 27.78° C | 68% | 1013.9 hPa | 0 mm | - | 78 W/m² | - |
| 1777559523 | 28.33° C | 66% | 1013.9 hPa | 0 mm | - | 80 W/m² | - |
| 1777559220 | 28.33° C | 67% | 1014.1 hPa | 0 mm | - | 105 W/m² | - |
| 1777558920 | 27.78° C | 69% | 1014.3 hPa | 0 mm | - | 187 W/m² | - |
| 1777558616 | 27.78° C | 70% | 1014.1 hPa | 0 mm | - | 516 W/m² | - |
* Rain latest hour (hover to see other rain measurements)
** Current wind speed in m/s (hover to see current wind gust speed)